Weather at Dala Järna Airport

Public forecast

Using degrees Celsius for public forecast. Weather courtesy of forecast.io.

Closest aviation weather report (METAR) to Dala Järna Airport

Report is more than 6 hours old.

Closest report is Mora Airport, 24.4 nm (45.3 km) N.

2022/11/14 15:20 (retrieved 2 years ago)

ESKM 141520Z AUTO 26003KT 9999 OVC004/// 03/03 Q1022

Closest aviation forecast (TAF) to Dala Järna Airport

Forecast is more than 12 hours old.

Closest forecast is Oslo Airport, Gardermoen, 99.6 nm (184.5 km) W.

2023/02/22 18:36 (retrieved 1 year ago)

TAF ENGM 221700Z 2218/2318 17010KT 9000 -SN SCT012 BKN025 BECMG 2218/2220 4000 -SN SCT004 BKN012 TEMPO 2220/2305 1200 SN BR VV004 BECMG 2307/2309 01012KT 9999 NSW SCT030